createdAt,value
2023-03-08T00:01:25.509Z,1.63
2023-03-08T00:03:55.096Z,1.65
2023-03-08T00:06:23.474Z,2.10
2023-03-08T00:08:54.821Z,1.45
2023-03-08T00:11:22.858Z,1.52
2023-03-08T00:13:51.027Z,1.63
2023-03-08T00:16:19.287Z,1.85
2023-03-08T00:18:47.362Z,1.40
2023-03-08T00:21:18.090Z,1.67
2023-03-08T00:23:46.761Z,1.65
2023-03-08T00:26:14.888Z,1.70
2023-03-08T00:28:43.531Z,1.95
2023-03-08T00:31:13.561Z,1.88
2023-03-08T00:33:41.991Z,1.90
2023-03-08T00:36:21.876Z,1.30
2023-03-08T00:38:51.304Z,1.45
2023-03-08T00:41:19.699Z,1.77
2023-03-08T00:43:47.878Z,1.70
2023-03-08T00:46:16.345Z,1.70
2023-03-08T00:48:45.805Z,1.60
2023-03-08T00:51:15.364Z,1.90
2023-03-08T00:53:43.528Z,1.55
2023-03-08T00:56:11.829Z,1.58
2023-03-08T00:58:41.703Z,1.60
2023-03-08T01:01:17.862Z,1.60
2023-03-08T01:03:48.317Z,1.67
2023-03-08T01:06:17.057Z,1.85
2023-03-08T01:08:45.676Z,1.98
2023-03-08T01:11:25.198Z,1.90
2023-03-08T01:13:54.254Z,1.98
2023-03-08T01:16:25.002Z,2.13
2023-03-08T01:18:53.712Z,1.80
2023-03-08T01:21:22.478Z,2.00
2023-03-08T01:23:50.632Z,1.80
2023-03-08T01:26:20.614Z,2.13
2023-03-08T01:28:49.209Z,1.98
2023-03-08T01:31:25.396Z,1.95
2023-03-08T01:33:54.939Z,2.25
2023-03-08T01:36:24.933Z,2.22
2023-03-08T01:38:53.117Z,2.17
2023-03-08T01:41:32.181Z,2.10
2023-03-08T01:44:00.143Z,2.40
2023-03-08T01:46:28.815Z,2.70
2023-03-08T01:49:34.075Z,2.92
2023-03-08T01:52:13.323Z,2.60
2023-03-08T01:54:47.124Z,2.30
2023-03-08T01:57:35.647Z,2.85
2023-03-08T02:00:10.001Z,2.60
2023-03-08T05:03:10.374Z,5.03
2023-03-08T05:05:38.306Z,4.80
2023-03-08T05:08:06.304Z,5.40
2023-03-08T05:10:36.570Z,5.43
2023-03-08T05:13:04.626Z,5.10
2023-03-08T05:15:32.459Z,5.03
2023-03-08T05:18:00.382Z,4.97
2023-03-08T05:20:29.010Z,5.85
2023-03-08T05:22:59.421Z,5.35
2023-03-08T05:25:44.985Z,5.68
2023-03-08T05:28:16.104Z,4.68
2023-03-08T05:33:16.065Z,3.83
2023-03-08T05:35:44.242Z,4.80
2023-03-08T05:38:12.283Z,4.28
2023-03-08T05:40:40.824Z,4.15
2023-03-08T05:43:09.478Z,4.10
2023-03-08T05:45:37.616Z,4.30
2023-03-08T05:48:06.269Z,3.95
2023-03-08T05:50:38.868Z,4.60
2023-03-08T05:53:06.906Z,4.90
2023-03-08T05:55:35.319Z,6.47
2023-03-08T05:58:03.501Z,6.55
2023-03-08T06:00:31.426Z,4.97
2023-03-08T06:03:04.106Z,5.22
2023-03-08T06:05:35.360Z,4.88
2023-03-08T06:08:03.496Z,4.85
2023-03-08T06:10:31.461Z,4.53
2023-03-08T06:12:59.604Z,4.32
2023-03-08T06:15:27.602Z,3.88
2023-03-08T06:17:57.357Z,3.97
2023-03-08T06:20:28.374Z,3.50
2023-03-08T06:22:57.418Z,3.67
2023-03-08T06:25:25.866Z,4.53
2023-03-08T06:27:54.263Z,4.00
2023-03-08T06:30:28.807Z,4.38
2023-03-08T06:32:57.627Z,4.22
2023-03-08T06:35:25.838Z,4.60
2023-03-08T06:37:58.479Z,4.20
2023-03-08T06:40:29.534Z,4.75
2023-03-08T06:42:58.638Z,4.43
2023-03-08T06:45:26.871Z,4.43
2023-03-08T06:47:54.932Z,4.53
2023-03-08T06:50:22.944Z,5.30
2023-03-08T06:52:51.487Z,4.05
2023-03-08T06:55:26.151Z,5.35
2023-03-08T06:57:55.798Z,5.32
2023-03-08T07:00:24.154Z,5.68
2023-03-08T07:02:52.296Z,5.05
2023-03-08T07:05:20.081Z,4.75
2023-03-08T07:07:48.020Z,4.57
2023-03-08T07:10:16.835Z,4.72
2023-03-08T07:12:48.704Z,5.13
2023-03-08T07:15:19.238Z,4.72
2023-03-08T07:17:48.175Z,4.57
2023-03-08T07:20:18.694Z,4.28
2023-03-08T07:22:46.884Z,4.60
2023-03-08T07:25:16.298Z,5.07
2023-03-08T07:27:44.761Z,5.93
2023-03-08T07:30:14.184Z,5.07
2023-03-08T07:32:43.190Z,4.70
2023-03-08T07:35:14.275Z,6.05
2023-03-08T07:37:44.325Z,5.20
2023-03-08T07:40:14.105Z,5.60
2023-03-08T07:42:42.212Z,5.38
2023-03-08T07:45:29.082Z,5.57
2023-03-08T07:47:57.085Z,4.88
2023-03-08T07:50:24.928Z,5.40
2023-03-08T07:52:53.033Z,7.03
2023-03-08T07:55:21.756Z,5.28
2023-03-08T07:57:49.687Z,5.38
2023-03-08T08:00:18.338Z,6.05
2023-03-08T08:02:47.208Z,5.60
2023-03-08T08:05:15.266Z,5.63
2023-03-08T08:07:43.411Z,5.50
2023-03-08T08:10:11.885Z,5.95
2023-03-08T08:12:39.790Z,5.28
2023-03-08T08:15:08.078Z,5.75
2023-03-08T08:17:36.230Z,5.38
2023-03-08T08:20:06.300Z,5.10
2023-03-08T08:22:36.535Z,5.13
2023-03-08T08:25:06.297Z,5.25
2023-03-08T08:27:34.780Z,4.82
2023-03-08T08:30:04.478Z,5.05
2023-03-08T08:32:35.539Z,5.47
2023-03-08T08:35:03.791Z,5.43
2023-03-08T08:37:33.194Z,4.72
2023-03-08T08:40:01.137Z,4.88
2023-03-08T08:42:29.155Z,5.65
2023-03-08T08:44:57.307Z,5.13
2023-03-08T08:47:25.068Z,5.18
2023-03-08T08:49:53.222Z,5.22
2023-03-08T08:52:21.322Z,5.35
2023-03-08T08:54:49.362Z,5.45
2023-03-08T08:57:17.211Z,5.45
2023-03-08T08:59:45.133Z,6.13
2023-03-08T09:02:13.681Z,4.75
2023-03-08T09:04:41.680Z,5.65
2023-03-08T09:07:12.772Z,5.43
2023-03-08T09:09:40.843Z,5.43
2023-03-08T09:12:11.983Z,5.22
2023-03-08T09:14:43.047Z,4.65
2023-03-08T09:17:11.260Z,4.70
2023-03-08T09:19:39.593Z,5.82
2023-03-08T09:22:07.661Z,5.18
2023-03-08T09:24:35.594Z,5.05
2023-03-08T09:27:06.394Z,5.68
2023-03-08T09:29:35.357Z,5.38
2023-03-08T09:32:03.379Z,5.85
2023-03-08T09:34:31.244Z,5.95
2023-03-08T09:36:59.262Z,5.15
2023-03-08T09:39:27.901Z,5.90
2023-03-08T09:41:58.713Z,5.03
2023-03-08T09:44:55.380Z,5.45
2023-03-08T09:47:47.030Z,4.55
2023-03-08T09:50:17.175Z,5.63
2023-03-08T09:52:58.770Z,5.82
2023-03-08T09:55:32.816Z,5.57
2023-03-08T09:58:06.178Z,4.90
2023-03-08T10:00:36.670Z,4.75
2023-03-08T10:03:04.500Z,6.15
2023-03-08T10:05:41.453Z,4.72
2023-03-08T10:08:33.064Z,5.10
2023-03-08T10:11:07.798Z,4.55
2023-03-08T10:13:41.485Z,5.25
2023-03-08T10:16:17.488Z,5.05
2023-03-08T10:19:19.168Z,4.45
2023-03-08T10:21:48.204Z,4.90
2023-03-08T10:24:26.917Z,4.25
2023-03-08T10:27:04.802Z,4.63
2023-03-08T10:29:32.584Z,5.28
2023-03-08T10:32:00.543Z,4.55
2023-03-08T10:34:31.425Z,4.93
2023-03-08T10:37:05.060Z,4.93
2023-03-08T10:39:32.940Z,5.10
2023-03-08T10:42:02.652Z,4.43
2023-03-08T10:44:31.316Z,4.75
2023-03-08T10:46:59.386Z,4.47
2023-03-08T10:49:28.099Z,4.78
2023-03-08T10:52:00.677Z,4.43
2023-03-08T10:54:29.256Z,5.22
2023-03-08T10:57:01.436Z,4.50
2023-03-08T10:59:34.583Z,4.50
2023-03-08T11:02:14.723Z,3.03
2023-03-08T11:04:53.797Z,2.47
2023-03-08T11:07:31.092Z,2.70
2023-03-08T11:10:17.374Z,2.20
2023-03-08T11:12:46.065Z,2.90
2023-03-08T11:15:18.812Z,1.90
2023-03-08T11:18:12.130Z,2.08
2023-03-08T11:20:50.162Z,2.55
2023-03-08T11:23:28.892Z,2.50
2023-03-08T11:26:04.646Z,2.53
2023-03-08T11:28:44.617Z,2.10
2023-03-08T11:31:27.259Z,2.83
2023-03-08T11:34:02.463Z,2.80
2023-03-08T11:36:32.892Z,2.80
2023-03-08T11:39:22.218Z,2.30
2023-03-08T11:41:59.412Z,2.30
2023-03-08T11:44:53.089Z,2.78
2023-03-08T11:47:30.326Z,3.15
2023-03-08T11:50:14.850Z,2.70
2023-03-08T11:53:05.939Z,3.42
2023-03-08T11:55:55.418Z,3.10
2023-03-08T11:58:49.295Z,2.80
2023-03-08T12:01:21.792Z,2.55
2023-03-08T12:04:04.638Z,2.33
2023-03-08T12:06:38.417Z,2.22
2023-03-08T12:09:20.727Z,1.92
2023-03-08T12:12:11.454Z,1.40
2023-03-08T12:14:56.708Z,2.63
2023-03-08T12:17:39.644Z,2.40
2023-03-08T12:20:15.284Z,2.65
2023-03-08T12:22:47.329Z,3.35
2023-03-08T12:25:34.812Z,3.80
2023-03-08T12:28:28.910Z,3.65
2023-03-08T12:31:26.562Z,3.50
2023-03-08T12:33:57.301Z,3.55
2023-03-08T12:36:38.738Z,3.60
2023-03-08T12:39:10.276Z,4.07
2023-03-08T12:41:38.417Z,3.90
2023-03-08T12:44:27.451Z,3.67
2023-03-08T12:47:03.383Z,4.10
2023-03-08T12:49:37.973Z,3.63
2023-03-08T12:52:35.625Z,3.83
2023-03-08T12:55:21.175Z,3.72
2023-03-08T12:57:54.964Z,3.80
2023-03-08T13:00:27.236Z,4.15
2023-03-08T13:03:07.709Z,4.22
2023-03-08T13:05:40.282Z,4.45
2023-03-08T13:08:14.216Z,4.82
2023-03-08T13:10:56.976Z,4.03
2023-03-08T13:13:39.726Z,4.25
2023-03-08T13:16:30.652Z,4.18
2023-03-08T13:19:27.999Z,3.88
2023-03-08T13:22:04.701Z,3.08
2023-03-08T13:24:41.682Z,4.43
2023-03-08T13:27:28.213Z,3.67
2023-03-08T13:30:18.210Z,4.90
2023-03-08T13:32:46.169Z,3.92
2023-03-08T13:35:16.360Z,3.55
2023-03-08T13:37:51.814Z,3.42
2023-03-08T13:40:21.763Z,3.70
2023-03-08T13:43:02.678Z,3.67
2023-03-08T13:45:31.334Z,3.20
2023-03-08T13:48:01.228Z,4.15
2023-03-08T13:50:35.982Z,4.28
2023-03-08T13:53:08.355Z,4.35
2023-03-08T13:55:40.585Z,3.88
2023-03-08T13:58:13.772Z,4.70
2023-03-08T14:00:41.954Z,4.47
2023-03-08T14:03:20.441Z,5.05
2023-03-08T14:05:50.440Z,4.97
2023-03-08T14:08:28.412Z,4.53
2023-03-08T14:11:03.575Z,4.75
2023-03-08T14:13:34.949Z,4.47
2023-03-08T14:16:09.698Z,4.03
2023-03-08T14:18:43.797Z,3.88
2023-03-08T14:21:23.125Z,4.18
2023-03-08T14:23:59.857Z,4.22
2023-03-08T14:26:39.538Z,3.97
2023-03-08T14:29:25.003Z,4.57
2023-03-08T14:32:16.268Z,4.70
2023-03-08T14:34:48.728Z,3.93
2023-03-08T14:37:25.265Z,4.32
2023-03-08T14:39:56.024Z,3.90
2023-03-08T14:42:27.569Z,4.05
2023-03-08T14:45:07.254Z,3.63
2023-03-08T14:47:36.208Z,3.38
2023-03-08T14:50:09.231Z,3.88
2023-03-08T14:52:44.121Z,3.05
2023-03-08T14:55:31.965Z,3.70
2023-03-08T14:58:03.592Z,4.10
2023-03-08T15:00:32.209Z,3.35
2023-03-08T15:03:01.020Z,2.72
2023-03-08T15:05:30.205Z,3.05
2023-03-08T15:07:59.520Z,3.42
2023-03-08T15:10:39.358Z,3.30
2023-03-08T15:13:18.928Z,3.22
2023-03-08T15:15:47.045Z,3.33
2023-03-08T15:18:15.139Z,3.78
2023-03-08T15:20:45.618Z,3.72
2023-03-08T15:23:29.569Z,3.85
2023-03-08T15:25:57.780Z,3.55
2023-03-08T15:28:25.867Z,3.28
2023-03-08T15:30:57.667Z,2.90
2023-03-08T15:35:53.847Z,2.85
2023-03-08T15:38:22.891Z,3.13
2023-03-08T15:40:50.805Z,3.22
2023-03-08T15:43:18.684Z,3.47
2023-03-08T15:45:47.076Z,4.00
2023-03-08T15:48:17.077Z,3.42
2023-03-08T15:50:45.478Z,4.00
2023-03-08T15:53:18.562Z,3.20
2023-03-08T15:55:54.018Z,3.10
2023-03-08T15:58:22.173Z,3.13
2023-03-08T16:00:50.480Z,3.00
2023-03-08T16:03:26.164Z,3.65
2023-03-08T16:05:55.288Z,3.47
2023-03-08T16:08:25.254Z,3.53
2023-03-08T16:10:53.239Z,2.95
2023-03-08T16:13:24.262Z,2.97
2023-03-08T16:15:51.985Z,2.88
2023-03-08T16:18:19.708Z,4.07
2023-03-08T16:20:47.556Z,3.30
2023-03-08T16:23:17.827Z,4.18
2023-03-08T16:25:46.697Z,3.70
2023-03-08T16:28:14.669Z,3.33
2023-03-08T16:30:43.193Z,3.67
2023-03-08T16:33:13.337Z,3.60
2023-03-08T16:35:41.988Z,3.25
2023-03-08T16:38:10.292Z,3.47
2023-03-08T16:40:39.962Z,3.75
2023-03-08T16:43:08.549Z,4.15
2023-03-08T16:45:38.235Z,4.20
2023-03-08T16:48:06.427Z,3.63
2023-03-08T16:50:34.260Z,3.78
2023-03-08T16:53:01.997Z,3.35
2023-03-08T16:55:29.973Z,3.60
2023-03-08T16:57:57.945Z,4.43
2023-03-08T17:00:27.305Z,3.85
2023-03-08T17:02:54.952Z,4.35
2023-03-08T17:05:22.656Z,5.18
2023-03-08T17:07:51.646Z,3.72
2023-03-08T17:10:19.507Z,4.05
2023-03-08T17:12:47.886Z,4.10
2023-03-08T17:15:15.785Z,4.53
2023-03-08T17:17:43.729Z,4.22
2023-03-08T17:20:14.157Z,4.30
2023-03-08T17:22:42.075Z,3.88
2023-03-08T17:25:10.527Z,3.72
2023-03-08T17:27:38.506Z,4.53
2023-03-08T17:30:07.121Z,4.07
2023-03-08T17:32:35.532Z,4.25
2023-03-08T17:35:03.996Z,4.32
2023-03-08T17:37:32.059Z,4.10
2023-03-08T17:39:59.954Z,4.68
2023-03-08T17:42:27.933Z,4.95
2023-03-08T17:44:55.661Z,5.47
2023-03-08T17:47:23.445Z,5.00
2023-03-08T17:49:51.471Z,4.55
2023-03-08T17:52:19.287Z,4.50
2023-03-08T17:54:48.952Z,5.32
2023-03-08T17:57:19.038Z,5.35
2023-03-08T17:59:51.224Z,6.07
2023-03-08T18:02:20.146Z,5.60
2023-03-08T18:04:50.253Z,5.65
2023-03-08T18:07:21.196Z,6.20
2023-03-08T18:09:49.303Z,6.32
2023-03-08T18:12:17.615Z,6.10
2023-03-08T18:14:47.452Z,5.78
2023-03-08T18:17:15.551Z,6.15
2023-03-08T18:19:43.830Z,5.80
2023-03-08T18:22:12.004Z,5.88
2023-03-08T18:24:40.371Z,6.38
2023-03-08T18:27:08.399Z,5.05
2023-03-08T18:29:37.334Z,5.68
2023-03-08T18:32:05.932Z,5.68
2023-03-08T18:34:34.080Z,5.53
2023-03-08T18:37:01.922Z,5.78
2023-03-08T18:39:30.210Z,5.28
2023-03-08T18:42:00.161Z,6.22
2023-03-08T18:44:28.222Z,5.25
2023-03-08T18:46:56.370Z,6.85
2023-03-08T18:49:24.092Z,6.22
2023-03-08T18:51:52.121Z,6.13
2023-03-08T18:54:20.982Z,5.78
2023-03-08T18:56:57.061Z,5.78
2023-03-08T18:59:26.740Z,5.93
2023-03-08T19:01:54.672Z,5.75
2023-03-08T19:04:22.678Z,5.50
2023-03-08T19:06:52.024Z,6.72
2023-03-08T19:09:22.079Z,6.05
2023-03-08T19:11:50.265Z,5.82
2023-03-08T19:14:18.498Z,6.00
2023-03-08T19:16:46.423Z,5.57
2023-03-08T19:19:16.255Z,6.63
2023-03-08T19:21:46.174Z,6.60
2023-03-08T19:24:18.595Z,6.63
2023-03-08T19:26:49.317Z,6.40
2023-03-08T19:29:18.753Z,6.35
2023-03-08T19:31:54.564Z,6.28
2023-03-08T19:34:28.032Z,6.50
2023-03-08T19:36:56.722Z,6.30
2023-03-08T19:39:28.401Z,5.93
2023-03-08T19:41:58.682Z,6.30
2023-03-08T19:44:27.594Z,5.63
2023-03-08T19:46:56.161Z,5.75
2023-03-08T19:49:26.811Z,5.60
2023-03-08T19:51:56.265Z,6.50
2023-03-08T19:54:25.933Z,5.50
2023-03-08T19:56:55.046Z,6.07
2023-03-08T19:59:24.067Z,5.00
2023-03-08T20:01:55.039Z,4.90
2023-03-08T20:04:23.757Z,5.45
2023-03-08T20:06:52.767Z,5.68
2023-03-08T20:09:22.804Z,4.70
2023-03-08T20:11:57.592Z,6.03
2023-03-08T20:14:27.645Z,5.13
2023-03-08T20:16:56.951Z,4.88
2023-03-08T20:19:24.980Z,4.93
2023-03-08T20:21:52.878Z,4.55
2023-03-08T20:24:22.359Z,4.78
2023-03-08T20:26:50.427Z,5.03
2023-03-08T20:29:18.855Z,4.78
2023-03-08T20:31:48.455Z,5.45
2023-03-08T20:34:16.855Z,4.88
2023-03-08T20:36:44.959Z,4.80
2023-03-08T20:39:13.547Z,4.55
2023-03-08T20:41:42.090Z,4.60
2023-03-08T20:44:15.221Z,4.43
2023-03-08T20:46:43.268Z,4.20
2023-03-08T20:49:12.656Z,4.72
2023-03-08T20:51:40.344Z,4.85
2023-03-08T20:54:08.831Z,5.18
2023-03-08T20:56:36.977Z,4.80
2023-03-08T20:59:05.474Z,4.85
2023-03-08T21:01:33.779Z,4.45
2023-03-08T21:04:01.607Z,4.20
2023-03-08T21:06:31.832Z,4.57
2023-03-08T21:09:00.779Z,5.00
2023-03-08T21:11:28.792Z,4.93
2023-03-08T21:13:56.781Z,4.15
2023-03-08T21:16:26.338Z,5.07
2023-03-08T21:18:59.410Z,5.00
2023-03-08T21:21:36.422Z,4.22
2023-03-08T21:24:07.855Z,4.45
2023-03-08T21:26:36.504Z,4.72
2023-03-08T21:29:06.811Z,4.30
2023-03-08T21:31:37.113Z,5.18
2023-03-08T21:34:06.446Z,4.07
2023-03-08T21:36:35.225Z,4.50
2023-03-08T21:39:06.715Z,4.80
2023-03-08T21:41:36.517Z,4.75
2023-03-08T21:44:06.670Z,4.57
2023-03-08T21:46:36.894Z,4.35
2023-03-08T21:49:05.193Z,4.70
2023-03-08T21:51:39.045Z,4.10
2023-03-08T21:54:06.897Z,4.82
2023-03-08T21:56:35.861Z,4.63
2023-03-08T21:59:04.069Z,5.18
2023-03-08T22:01:32.528Z,5.07
2023-03-08T22:04:01.588Z,5.25
2023-03-08T22:06:29.825Z,4.78
2023-03-08T22:08:58.143Z,4.82
2023-03-08T22:11:27.154Z,5.20
2023-03-08T22:13:57.573Z,4.65
2023-03-08T22:16:26.470Z,4.85
2023-03-08T22:18:59.270Z,4.68
2023-03-08T22:21:28.370Z,4.43
2023-03-08T22:23:58.141Z,4.45
2023-03-08T22:26:27.126Z,4.22
2023-03-08T22:28:56.007Z,4.88
2023-03-08T22:31:25.984Z,4.43
2023-03-08T22:33:54.313Z,5.28
2023-03-08T22:36:22.847Z,5.90
2023-03-08T22:38:51.009Z,4.82
2023-03-08T22:41:21.796Z,5.60
2023-03-08T22:43:50.450Z,5.38
2023-03-08T22:46:23.594Z,5.47
2023-03-08T22:48:52.836Z,4.88
2023-03-08T22:51:23.086Z,5.63
2023-03-08T22:53:51.908Z,4.90
2023-03-08T22:56:22.997Z,5.38
2023-03-08T22:58:51.209Z,5.40
2023-03-08T23:01:21.416Z,4.93
2023-03-08T23:03:50.378Z,5.65
2023-03-08T23:06:19.276Z,4.60
2023-03-08T23:08:47.692Z,5.20
2023-03-08T23:11:15.521Z,5.13
2023-03-08T23:13:43.772Z,4.95
2023-03-08T23:16:16.201Z,5.18
2023-03-08T23:18:44.891Z,4.45
2023-03-08T23:21:14.876Z,4.40
2023-03-08T23:23:42.907Z,4.78
2023-03-08T23:26:14.292Z,5.03
2023-03-08T23:28:47.869Z,4.45
2023-03-08T23:31:17.946Z,5.28
2023-03-08T23:33:46.361Z,4.80
2023-03-08T23:36:16.479Z,4.85
2023-03-08T23:38:44.809Z,4.28
2023-03-08T23:41:14.121Z,5.05
2023-03-08T23:43:42.990Z,5.03
2023-03-08T23:46:14.190Z,5.72
2023-03-08T23:48:43.238Z,5.32
2023-03-08T23:51:13.926Z,6.05
2023-03-08T23:53:42.070Z,5.53
2023-03-08T23:56:27.127Z,5.57
2023-03-08T23:58:56.727Z,4.18
